Latest Coastal Weather Observations for Lombadina

IDW60701

Issued at 6:45 am WST Saturday 29 November 2014 (issued every 10 minutes, with the page automatically refreshed every 10 minutes)

About coastal observations | Map of coastal stations | Coastal observations for WA | Marine services | Other Formats
Station Details ID: 503016 Name: LOMBADINA AIRSTRIP Lat: -16.52 Lon: 122.92 Height: 42.0 m
Data from the previous 72 hours. | See also: Recent months for locations in Western Australia
Date/Time
WST
Temp

°C
Wind Pressure Rain
since 9am
mm
Weather Cloud Vis
km
Sea
Height
m
Swell
Dir
 
Speed
knots
Gust
knots
hPa Trend Height
m
Period
s
Dir
29/06:30am 29.2 SW 1 5 1008.7 - 0.0 - - 10 - - - -
29/06:00am 28.4 CALM 0 0 1008.4 - 0.0 - - 10 - - - -
29/05:30am 27.4 CALM 0 1 1008.0 - 0.0 - - 10 - - - -
29/05:00am 27.1 SSW 1 4 1007.7 - 0.0 - Partly cloudy 10 - - - -
29/04:30am 26.6 CALM 0 2 1007.5 - 0.0 - Partly cloudy 10 - - - -
29/04:00am 26.9 CALM 0 0 1007.0 - 0.0 - - 10 - - - -
29/03:30am 27.7 CALM 0 3 1006.7 - 0.0 - - 10 - - - -
29/03:00am 28.1 WSW 2 6 1006.5 - 0.0 - - 10 - - - -
29/02:30am 28.5 WSW 3 8 1006.5 - 0.0 - - 10 - - - -
29/02:00am 28.4 W 2 6 1006.7 - 0.0 - - 10 - - - -
29/01:30am 28.6 W 3 6 1006.8 - 0.0 - - 10 - - - -
29/01:00am 28.6 WSW 4 10 1006.8 - 0.0 - - 10 - - - -
29/12:30am 28.6 W 3 7 1007.0 - 0.0 - - 10 - - - -
29/12:00am 28.8 W 3 8 1007.1 - 0.0 - - 10 - - - -
 
Date/Time
WST
Temp

°C
Wind Pressure Rain
since 9am
mm
Weather Cloud Vis
km
Sea
Height
m
Swell
Dir
 
Speed
knots
Gust
knots
hPa Trend Height
m
Period
s
Dir
28/11:30pm 28.9 W 4 10 1007.4 - 0.0 - - 10 - - - -
28/11:00pm 28.9 W 3 8 1007.7 - 0.0 - - 10 - - - -
28/10:30pm 29.0 W 3 7 1008.0 - 0.0 - - 10 - - - -
28/10:00pm 29.1 W 4 8 1008.0 - 0.0 - - 10 - - - -
28/09:30pm 29.1 W 3 8 1008.1 - 0.0 - - 10 - - - -
28/09:00pm 29.3 W 3 7 1008.3 - 0.0 - - 10 - - - -
28/08:30pm 29.3 W 3 8 1008.0 - 0.0 - - 10 - - - -
28/08:00pm 29.4 W 3 7 1007.9 - 0.0 - - 10 - - - -
28/07:30pm 29.5 W 3 7 1007.8 - 0.0 - - 10 - - - -
28/07:00pm 29.7 W 3 7 1007.4 - 0.0 - - 10 - - - -
28/06:30pm 29.7 W 4 8 1007.2 - 0.0 - - 10 - - - -
28/06:00pm 30.2 W 3 7 1006.7 - 0.0 - - 10 - - - -
28/05:30pm 31.0 W 4 8 1006.4 - 0.0 - Partly cloudy 10 - - - -
28/05:00pm 31.4 W 5 9 1006.2 - 0.0 - - 10 - - - -
28/04:30pm 32.2 W 5 11 1006.2 - 0.0 - - 10 - - - -
28/04:00pm 32.0 W 7 13 1006.0 - 0.0 - - 10 - - - -
28/03:30pm 31.9 W 6 12 1005.9 - 0.0 - - 10 - - - -
28/03:00pm 32.9 W 4 10 1006.4 - 0.0 - - 10 - - - -
28/02:30pm 33.0 WNW 6 12 1006.9 - 0.0 - - 10 - - - -
28/02:00pm 32.0 NW 8 13 1007.0 - 0.0 - - 10 - - - -
28/01:30pm 32.3 NW 7 11 1007.0 - 0.0 - - 10 - - - -
28/01:00pm 32.0 NW 8 15 1007.6 - 0.0 - - 10 - - - -
28/12:30pm 32.0 NW 8 13 1008.3 - 0.0 - - 10 - - - -
28/12:00pm 31.9 NW 8 13 1008.5 - 0.0 - - 10 - - - -
28/11:30am 32.3 WNW 7 12 1008.9 - 0.0 - - 10 - - - -
28/11:00am 32.4 NW 7 12 1009.2 - 0.0 - Partly cloudy 10 - - - -
28/10:30am 32.1 NW 5 8 1009.5 - 0.0 - Partly cloudy 10 - - - -
28/10:00am 32.6 N 3 8 1009.8 - 0.0 - - 10 - - - -
28/09:30am 33.0 E 1 5 1010.0 - 0.0 - - 10 - - - -
28/09:00am 33.0 SE 1 6 1010.2 - 33.0 - - 10 - - - -
28/08:30am 32.2 NE 4 8 1010.0 - 33.0 - - 10 - - - -
28/08:00am 31.4 ENE 2 8 1009.9 - 33.0 - - 10 - - - -
28/07:30am 31.1 E 3 7 1009.9 - 33.0 - - 10 - - - -
28/07:00am 30.1 ENE 2 6 1009.8 - 33.0 - - 10 - - - -
28/06:30am 29.2 ENE 2 6 1009.4 - 33.0 - - 10 - - - -
28/06:00am 28.1 CALM 0 3 1009.0 - 33.0 - - 10 - - - -
28/05:30am 26.6 CALM 0 0 1008.7 - 33.0 - - 10 - - - -
28/05:00am 26.5 CALM 0 2 1008.4 - 33.0 - - 10 - - - -
28/04:30am 25.8 CALM 0 2 1008.3 - 33.0 - - 10 - - - -
28/04:00am 25.6 CALM 0 0 1007.9 - 33.0 - - 10 - - - -
28/03:30am 26.7 CALM 0 0 1007.6 - 33.0 - - 10 - - - -
28/03:00am 26.8 CALM 0 2 1007.7 - 33.0 - - 10 - - - -
28/02:30am 26.8 CALM 0 3 1007.4 - 33.0 - - 10 - - - -
28/02:00am 27.0 CALM 0 0 1007.5 - 33.0 - - 10 - - - -
28/01:30am 27.0 CALM 0 0 1007.8 - 33.0 - - 10 - - - -
28/01:00am 26.4 CALM 0 0 1008.1 - 33.0 - - 10 - - - -
28/12:30am 26.7 CALM 0 0 1008.5 - 33.0 - Partly cloudy 10 - - - -
28/12:00am 26.6 CALM 0 0 1008.9 - 33.0 - - 10 - - - -
 
Date/Time
WST
Temp

°C
Wind Pressure Rain
since 9am
mm
Weather Cloud Vis
km
Sea
Height
m
Swell
Dir
 
Speed
knots
Gust
knots
hPa Trend Height
m
Period
s
Dir
27/11:30pm 27.4 CALM 0 0 1009.2 - 33.0 - - 10 - - - -
27/11:00pm 27.4 E 1 5 1009.4 - 33.0 - - 10 - - - -
27/10:30pm 27.3 E 2 5 1009.8 - 33.0 - - 10 - - - -
27/10:00pm 27.2 ENE 1 3 1010.1 - 33.0 - - 10 - - - -
27/09:30pm 27.2 CALM 0 0 1010.1 - 33.0 - - 10 - - - -
27/09:00pm 27.5 CALM 0 0 1010.0 - 33.0 - - 10 - - - -
27/08:30pm 27.8 NNE 1 4 1009.4 - 33.0 - - 10 - - - -
27/08:00pm 28.0 CALM 0 2 1008.8 - 33.0 - - 10 - - - -
27/07:30pm 28.0 CALM 0 3 1008.7 - 33.0 - - 10 - - - -
27/07:00pm 28.4 NNW 1 3 1008.8 - 33.0 - - 10 - - - -
27/06:30pm 29.1 W 1 4 1009.0 - 33.0 - - 10 - - - -
27/06:00pm 29.3 CALM 0 4 1008.7 - 33.0 - Mostly clear 10 - - - -
27/05:30pm 30.0 NW 4 6 1008.7 - 33.0 - - 10 - - - -
27/05:00pm 30.0 NW 6 10 1008.0 - 33.0 - - 10 - - - -
27/04:30pm 30.9 NW 6 10 1007.7 - 33.0 - - 10 - - - -
27/04:00pm 30.7 WNW 6 10 1007.3 - 33.0 - - 10 - - - -
27/03:30pm 31.0 WNW 6 11 1006.8 - 33.0 - - 10 - - - -
27/03:00pm 30.6 NW 7 12 1006.3 - 33.0 - - 10 - - - -
27/02:30pm 30.9 NW 7 11 1006.7 - 33.0 - - 10 - - - -
27/02:00pm 30.6 NW 8 12 1006.9 - 33.0 - - 10 - - - -
27/01:30pm 31.0 NW 8 14 1007.2 - 33.0 - - 10 - - - -
27/01:00pm 32.0 NNW 7 12 1007.6 - 33.0 - Partly cloudy 10 - - - -
27/12:30pm 31.3 NW 6 12 1008.1 - 33.0 - Partly cloudy 10 - - - -
27/12:00pm 31.2 NW 6 11 1008.5 - 33.0 - - 10 - - - -
27/11:30am 31.1 NW 5 11 1008.7 - 33.0 - - 10 - - - -
27/11:00am 30.1 N 5 9 1009.3 - 33.0 - - 10 - - - -
27/10:30am 25.2 WSW 1 3 1009.7 - 33.0 - Partly cloudy 10 - - - -
27/10:24am 24.6 WSW 2 4 1009.9 - 33.0 - Partly cloudy 10 - - - -
27/10:00am 23.7 NE 5 9 1010.0 - 29.2 - Partly cloudy 0.7 - - - -
27/09:30am 25.9 SSW 5 9 1010.2 - 6.0 - Partly cloudy 2 - - - -
27/09:21am 26.8 S 4 9 1009.9 - 2.0 - Partly cloudy 4 - - - -
27/09:00am 28.1 WSW 2 5 1009.5 - 0.6 Rain Cloudy 7 - - - -
27/08:30am 29.9 WNW 5 10 1009.4 - 0.0 - Partly cloudy 10 - - - -
27/08:00am 29.5 WNW 5 8 1009.2 - 0.0 - Partly cloudy 10 - - - -
27/07:30am 29.6 WNW 3 6 1009.0 - 0.0 - Partly cloudy 10 - - - -
27/07:00am 29.6 W 2 5 1009.0 - 0.0 - Partly cloudy 10 - - - -
27/06:30am 29.6 CALM 0 1 1008.8 - 0.0 - - 10 - - - -
27/06:00am 28.2 CALM 0 0 1008.7 - 0.0 - - 10 - - - -
27/05:30am 26.4 CALM 0 0 1008.5 - 0.0 - Partly cloudy 10 - - - -
27/05:00am 25.9 CALM 0 0 1008.3 - 0.0 - Partly cloudy 10 - - - -
27/04:30am 26.2 CALM 0 0 1007.8 - 0.0 - - 10 - - - -
27/04:00am 26.4 CALM 0 0 1007.7 - 0.0 - - 10 - - - -
27/03:30am 27.7 N 2 4 1007.4 - 0.0 - - 10 - - - -
27/03:00am 27.5 N 3 6 1007.1 - 0.0 - Mostly clear 10 - - - -
27/02:30am 27.5 N 2 4 1006.9 - 0.0 - Partly cloudy 10 - - - -
27/02:00am 27.2 N 2 4 1006.8 - 0.0 - Partly cloudy 10 - - - -
27/01:30am 27.3 N 2 4 1006.7 - 0.0 - - 10 - - - -
27/01:00am 27.6 N 3 5 1006.6 - 0.0 - - 10 - - - -
27/12:30am 27.6 NNE 1 3 1006.6 - 0.0 - - 10 - - - -
27/12:00am 27.9 N 3 5 1006.7 - 0.0 - - 10 - - - -
 
Date/Time
WST
Temp

°C
Wind Pressure Rain
since 9am
mm
Weather Cloud Vis
km
Sea
Height
m
Swell
Dir
 
Speed
knots
Gust
knots
hPa Trend Height
m
Period
s
Dir
26/11:30pm 28.1 N 3 4 1006.7 - 0.0 - - 10 - - - -
26/11:00pm 28.3 NNW 4 8 1006.7 - 0.0 - - 10 - - - -
26/10:30pm 28.3 N 3 4 1006.8 - 0.0 - - 10 - - - -
26/10:00pm 28.4 NNW 5 7 1006.6 - 0.0 - - 10 - - - -
26/09:30pm 28.3 N 4 6 1006.8 - 0.0 - - 10 - - - -
26/09:00pm 28.4 NNW 4 6 1006.9 - 0.0 - - 10 - - - -
26/08:30pm 28.6 NNE 2 3 1007.0 - 0.0 - - 10 - - - -
26/08:00pm 28.9 NNE 3 4 1007.0 - 0.0 - - 10 - - - -
26/07:30pm 29.4 CALM 0 3 1007.4 - 0.0 - - 10 - - - -
26/07:00pm 29.5 ENE 3 5 1007.0 - 0.0 - Partly cloudy 10 - - - -
26/06:30pm 29.8 E 4 8 1006.2 - 0.0 - Partly cloudy 10 - - - -
26/06:00pm 29.7 N 5 11 1005.0 - 0.0 - Partly cloudy 10 - - - -
26/05:30pm 30.2 NNE 7 13 1004.5 - 0.0 - - 10 - - - -
26/05:00pm 30.9 NNE 9 16 1003.9 - 0.0 - - 10 - - - -
26/04:30pm 31.7 NNE 9 15 1003.4 - 0.0 - - 10 - - - -
26/04:00pm 32.3 N 9 15 1003.5 - 0.0 - - 10 - - - -
26/03:30pm 33.1 NNE 9 16 1003.7 - 0.0 - - 10 - - - -
26/03:00pm 34.3 NNE 9 14 1004.0 - 0.0 - - 10 - - - -
26/02:30pm 35.7 NE 8 13 1004.2 - 0.0 - - 10 - - - -
26/02:00pm 36.7 E 7 16 1004.5 - 0.0 - - 10 - - - -
26/01:30pm 36.6 E 7 14 1004.9 - 0.0 - - 10 - - - -
26/01:00pm 36.3 ESE 6 14 1005.1 - 0.0 - - 10 - - - -
26/12:30pm 36.0 SSE 10 17 1005.5 - 0.0 - - 10 - - - -
26/12:00pm 35.7 SE 10 18 1005.9 - 0.0 - - 10 - - - -
26/11:30am 34.9 SSE 12 23 1006.4 - 0.0 - - 10 - - - -
26/11:00am 34.5 SE 12 22 1006.9 - 0.0 - - 10 - - - -
26/10:30am 34.6 SE 12 23 1007.3 - 0.0 - - 10 - - - -
26/10:00am 35.5 SE 11 21 1007.5 - 0.0 - - 10 - - - -
26/09:30am 33.2 SE 12 22 1007.8 - 0.0 - - 10 - - - -
26/09:00am 33.0 SE 11 24 1007.9 - 0.0 - - 10 - - - -
26/08:30am 31.8 SE 13 23 1008.0 - 0.0 - - 10 - - - -
26/08:00am 31.7 SE 11 20 1007.7 - 0.0 - - 10 - - - -
26/07:30am 30.6 SSE 8 14 1007.6 - 0.0 - - 10 - - - -
26/07:00am 29.2 S 7 15 1007.5 - 0.0 - - 9 - - - -

Other Formats:

Comma delimited format used in spreadsheet applications
http://www.bom.gov.au/fwo/IDW60701/IDW60701.99206.axf

JavaScript Object Notation format (JSON) in row-major order
http://www.bom.gov.au/fwo/IDW60701/IDW60701.99206.json